Talbot, Indiana
Current Conditions -  °F | °C
As of 3:35 AM on Monday 22 Dec 2014 (Local Time) from KDNV Reporting Station
Overcast Overcast  
Wind Chill: -5°   Ceiling: 8500
Heat Index: -1°   Visibility: 7mi
Dew Point: -2°   Wind: 8mph
Humidity: 90%   Direction: 120°ESE
Pressure: 29.96"   Gusts: NA
Location:  40.51°N, 87.45°W
Report Text: KDNV 220835Z AUTO 12007KT 7SM BKN085 OVC110 M01/M02 A2996 RMK AO2 T10101024
Loading
Personal Weather Stations






























Interactive Weather Map New forecast layout! Learn more

10-Day Weather Forecast

Advertisements
Track Severe Weather on mobile